Time;durP1;ratioP1;P1;durP2;ratioP2;P2;SDS_P1;SDS_P2;PMS_P1;PMS_P2;Temp;Humidity;BMP_temperature;BMP_pressure;BME280_temperature;BME280_humidity;BME280_pressure;Samples;Min_cycle;Max_cycle;Signal;HPM_P1;HPM_P2
2023/09/13 00:00:11;;;;;;;17.10;14.60;;;;;;;15.70;70.04;100477.97;88371;277;137610;-74
2023/09/13 00:02:16;;;;;;;20.20;15.40;;;;;;;15.70;70.14;100475.58;88596;281;22526;-74
2023/09/13 00:04:19;;;;;;;25.10;16.10;;;;;;;15.71;70.13;100472.91;88560;280;138647;-73
2023/09/13 00:06:21;;;;;;;22.30;16.00;;;;;;;15.72;70.10;100471.59;88687;280;22524;-72
2023/09/13 00:08:23;;;;;;;18.60;14.70;;;;;;;15.71;70.26;100472.92;88438;280;136402;-76
2023/09/13 00:10:28;;;;;;;16.30;14.10;;;;;;;15.71;70.18;100473.17;88585;276;22592;-71
2023/09/13 00:12:29;;;;;;;20.60;14.80;;;;;;;15.68;70.52;100473.23;88469;279;137384;-74
2023/09/13 00:14:31;;;;;;;22.30;15.50;;;;;;;15.66;70.72;100473.42;89116;273;22534;-76
2023/09/13 00:16:33;;;;;;;17.30;14.70;;;;;;;15.66;71.06;100473.26;89585;280;136673;-74
2023/09/13 00:18:35;;;;;;;21.10;16.30;;;;;;;15.62;71.17;100472.95;89485;280;22599;-77
2023/09/13 00:20:38;;;;;;;19.90;15.80;;;;;;;15.57;71.25;100471.33;88543;278;136642;-77
2023/09/13 00:22:39;;;;;;;18.10;14.70;;;;;;;15.54;71.37;100468.00;88603;280;22692;-75
2023/09/13 00:24:41;;;;;;;18.70;15.80;;;;;;;15.51;71.50;100468.98;88454;281;137135;-73
2023/09/13 00:26:44;;;;;;;18.70;15.60;;;;;;;15.50;71.62;100467.04;88560;280;22528;-77
2023/09/13 00:28:47;;;;;;;21.50;15.80;;;;;;;15.50;71.71;100463.00;88480;273;138306;-75
2023/09/13 00:30:49;;;;;;;22.40;16.20;;;;;;;15.53;71.67;100463.02;88683;280;24932;-74
2023/09/13 00:32:51;;;;;;;18.20;14.80;;;;;;;15.53;71.75;100465.01;88486;273;138690;-74
2023/09/13 00:34:53;;;;;;;18.40;15.20;;;;;;;15.52;71.97;100465.13;88506;282;22527;-76
2023/09/13 00:36:55;;;;;;;18.70;15.40;;;;;;;15.44;72.07;100463.70;88369;273;137102;-74
2023/09/13 00:38:57;;;;;;;18.20;15.60;;;;;;;15.39;72.49;100462.48;88535;273;25004;-76
2023/09/13 00:40:58;;;;;;;21.70;16.40;;;;;;;15.35;72.72;100464.02;88444;281;136661;-75
2023/09/13 00:43:01;;;;;;;21.40;15.90;;;;;;;15.32;73.00;100465.88;88471;274;25096;-76
2023/09/13 00:45:03;;;;;;;20.10;15.30;;;;;;;15.29;73.11;100460.65;88431;274;137924;-71
2023/09/13 00:47:05;;;;;;;26.20;16.20;;;;;;;15.25;73.35;100461.05;89080;281;25281;-76
2023/09/13 00:49:08;;;;;;;17.40;15.50;;;;;;;15.20;73.67;100459.55;88695;276;137084;-76
2023/09/13 00:51:11;;;;;;;19.40;14.10;;;;;;;15.15;74.07;100457.44;88636;273;22621;-77
2023/09/13 00:53:13;;;;;;;18.50;15.70;;;;;;;15.02;74.50;100447.17;88452;277;138138;-71
2023/09/13 00:55:17;;;;;;;18.80;14.50;;;;;;;15.07;74.61;100461.73;88661;280;22615;-76
2023/09/13 00:57:22;;;;;;;18.40;14.20;;;;;;;15.04;75.11;100459.11;88534;282;138259;-77
2023/09/13 00:59:25;;;;;;;19.60;15.00;;;;;;;15.00;75.53;100458.38;88584;277;22533;-77
2023/09/13 01:01:27;;;;;;;16.80;14.00;;;;;;;14.99;75.59;100454.54;88353;274;136935;-76
2023/09/13 01:03:31;;;;;;;18.90;14.90;;;;;;;14.98;75.93;100456.70;88738;281;25391;-77
2023/09/13 01:05:36;;;;;;;19.30;15.10;;;;;;;14.95;76.05;100460.23;88657;277;136543;-77
2023/09/13 01:07:40;;;;;;;18.80;15.30;;;;;;;14.84;76.10;100449.70;88579;275;22539;-78
2023/09/13 01:09:42;;;;;;;22.30;16.90;;;;;;;14.88;76.21;100458.15;88556;274;137461;-75
2023/09/13 01:11:45;;;;;;;24.00;16.10;;;;;;;14.87;76.32;100457.87;88732;280;22637;-73
2023/09/13 01:13:47;;;;;;;20.90;16.80;;;;;;;14.87;76.26;100458.41;88714;277;136688;-77
2023/09/13 01:16:00;;;;;;;20.90;16.70;;;;;;;14.87;76.32;100455.36;88767;280;22716;-74
2023/09/13 01:18:13;;;;;;;19.40;15.90;;;;;;;14.89;76.21;100454.98;88570;273;137116;-79
2023/09/13 01:20:30;;;;;;;21.10;15.70;;;;;;;14.90;76.26;100456.16;88625;273;137625;-79
2023/09/13 01:22:43;;;;;;;21.50;16.20;;;;;;;14.90;76.57;100455.33;88662;277;24089;-75
2023/09/13 01:25:06;;;;;;;21.40;15.90;;;;;;;14.87;76.62;100453.38;88495;273;138733;-76
2023/09/13 01:27:39;;;;;;;23.00;16.20;;;;;;;14.85;76.92;100450.66;88631;280;22593;-76
2023/09/13 01:29:44;;;;;;;19.50;16.70;;;;;;;14.79;77.11;100448.77;88487;281;137455;-75
2023/09/13 01:31:46;;;;;;;18.60;16.40;;;;;;;14.73;77.33;100447.29;88689;281;22534;-71
2023/09/13 01:33:48;;;;;;;20.60;18.20;;;;;;;14.68;77.68;100448.83;88641;280;136628;-78
2023/09/13 01:35:51;;;;;;;21.40;15.40;;;;;;;14.65;77.97;100448.14;88693;277;22541;-79
2023/09/13 01:37:52;;;;;;;23.30;16.60;;;;;;;14.60;78.52;100446.96;88533;278;136253;-77
2023/09/13 01:39:54;;;;;;;23.10;16.40;;;;;;;14.56;78.84;100449.08;88668;277;24204;-75
2023/09/13 01:42:03;;;;;;;25.50;16.40;;;;;;;14.58;78.68;100448.79;88644;280;137209;-74
2023/09/13 01:44:07;;;;;;;19.10;15.00;;;;;;;14.56;78.87;100452.44;88480;278;137522;-76
2023/09/13 01:46:11;;;;;;;24.70;17.60;;;;;;;14.53;79.21;100447.53;88787;279;22547;-67
2023/09/13 01:48:16;;;;;;;22.10;16.70;;;;;;;14.54;79.11;100452.23;88647;279;137664;-65
2023/09/13 01:50:18;;;;;;;21.70;17.20;;;;;;;14.56;79.00;100449.99;89187;277;25123;-65
2023/09/13 01:52:20;;;;;;;20.10;16.50;;;;;;;14.59;78.91;100451.33;88573;276;137076;-68
2023/09/13 01:54:22;;;;;;;18.40;16.30;;;;;;;14.57;79.15;100452.65;88478;278;25291;-66
2023/09/13 01:56:24;;;;;;;18.70;16.70;;;;;;;14.55;79.10;100455.65;88428;282;136256;-64
2023/09/13 01:58:26;;;;;;;25.40;17.40;;;;;;;14.52;79.10;100451.66;88438;275;25092;-66
2023/09/13 02:00:27;;;;;;;23.40;17.10;;;;;;;14.53;79.09;100452.73;88471;273;136757;-68
2023/09/13 02:02:29;;;;;;;19.50;16.40;;;;;;;14.50;79.04;100455.74;88671;273;25137;-71
2023/09/13 02:04:33;;;;;;;23.60;17.00;;;;;;;14.47;79.22;100459.23;88594;273;137352;-68
2023/09/13 02:06:35;;;;;;;25.60;18.40;;;;;;;14.46;79.29;100458.20;88694;273;25160;-71
2023/09/13 02:08:38;;;;;;;27.70;17.30;;;;;;;14.45;79.44;100462.85;88457;273;138527;-68
2023/09/13 02:10:40;;;;;;;18.40;16.10;;;;;;;14.42;79.70;100459.15;89938;273;24049;-68
2023/09/13 02:12:41;;;;;;;19.20;16.10;;;;;;;14.40;80.03;100456.98;88352;278;138007;-68
2023/09/13 02:14:43;;;;;;;21.20;16.10;;;;;;;14.37;80.23;100456.16;88626;273;25195;-64
2023/09/13 02:16:45;;;;;;;20.50;15.80;;;;;;;14.35;80.57;100454.85;88540;280;137173;-65
2023/09/13 02:18:47;;;;;;;24.50;16.90;;;;;;;14.32;80.73;100454.48;88608;280;22854;-67
2023/09/13 02:20:49;;;;;;;20.60;16.70;;;;;;;14.28;81.08;100456.59;88420;277;137202;-65
2023/09/13 02:22:51;;;;;;;22.10;17.10;;;;;;;14.25;81.42;100458.38;88606;280;22539;-66
2023/09/13 02:24:52;;;;;;;20.00;16.50;;;;;;;14.23;82.03;100457.72;88552;280;137335;-64
2023/09/13 02:26:56;;;;;;;19.20;17.10;;;;;;;14.19;83.45;100461.40;88626;281;22539;-67
2023/09/13 02:28:57;;;;;;;21.50;17.10;;;;;;;14.14;83.87;100459.52;88513;276;136753;-64
2023/09/13 02:30:59;;;;;;;23.10;18.10;;;;;;;14.04;84.86;100458.69;88498;275;26171;-66
2023/09/13 02:33:02;;;;;;;23.30;17.40;;;;;;;13.96;85.17;100457.39;88468;274;136557;-68
2023/09/13 02:35:05;;;;;;;25.70;18.10;;;;;;;13.92;85.73;100457.52;88588;274;26293;-75
2023/09/13 02:37:06;;;;;;;24.50;19.20;;;;;;;13.89;85.87;100456.39;88701;277;137209;-75
2023/09/13 02:39:31;;;;;;;21.20;18.40;;;;;;;13.88;86.08;100450.67;88711;280;24167;-74
2023/09/13 02:41:32;;;;;;;21.00;16.30;;;;;;;13.89;86.52;100453.98;88813;273;137279;-75
2023/09/13 02:43:34;;;;;;;23.00;18.20;;;;;;;13.90;86.68;100456.07;88817;274;22599;-77
2023/09/13 02:45:36;;;;;;;21.70;17.30;;;;;;;13.92;86.58;100451.40;88641;277;139129;-75
2023/09/13 02:47:37;;;;;;;22.90;16.30;;;;;;;13.93;86.98;100451.41;88841;280;22534;-73
2023/09/13 02:49:40;;;;;;;20.30;16.70;;;;;;;13.87;87.22;100441.82;88535;280;137180;-72
2023/09/13 02:51:43;;;;;;;24.00;17.10;;;;;;;13.97;87.18;100452.23;88670;280;22590;-74
2023/09/13 02:53:45;;;;;;;21.80;16.80;;;;;;;14.01;87.07;100448.48;88721;275;137091;-75
2023/09/13 02:55:48;;;;;;;19.50;15.80;;;;;;;14.04;87.15;100449.74;88789;281;25099;-72
2023/09/13 02:57:53;;;;;;;19.00;14.90;;;;;;;14.07;87.27;100450.61;88404;274;137359;-72
2023/09/13 02:59:55;;;;;;;24.20;17.10;;;;;;;14.12;86.96;100451.10;88665;278;22538;-75
2023/09/13 03:01:57;;;;;;;18.40;15.70;;;;;;;14.16;86.79;100451.29;88307;275;136778;-75
2023/09/13 03:04:00;;;;;;;21.30;17.80;;;;;;;14.17;86.72;100454.59;88157;278;670635;-75
2023/09/13 03:06:11;;;;;;;18.90;16.70;;;;;;;14.15;86.73;100453.61;88531;281;137087;-73
2023/09/13 03:08:13;;;;;;;18.90;16.90;;;;;;;14.13;86.61;100457.94;88512;275;137422;-76
2023/09/13 03:10:15;;;;;;;19.60;16.90;;;;;;;14.15;86.42;100452.42;88549;275;22824;-75
2023/09/13 03:12:18;;;;;;;24.80;17.60;;;;;;;14.14;86.35;100452.13;88572;277;137319;-74
2023/09/13 03:14:21;;;;;;;18.80;16.80;;;;;;;14.13;86.30;100452.98;88677;274;22548;-74
2023/09/13 03:16:24;;;;;;;25.10;18.70;;;;;;;14.11;86.31;100452.66;88574;276;137556;-76
2023/09/13 03:18:26;;;;;;;20.70;16.20;;;;;;;14.11;86.19;100453.98;88985;274;22536;-75
2023/09/13 03:20:28;;;;;;;23.60;17.20;;;;;;;14.11;86.30;100457.52;88947;279;137186;-75
2023/09/13 03:22:30;;;;;;;22.70;19.60;;;;;;;14.11;86.34;100453.20;89017;273;22549;-72
2023/09/13 03:24:32;;;;;;;21.50;17.10;;;;;;;14.10;86.42;100450.86;88611;278;137010;-76
2023/09/13 03:26:34;;;;;;;21.20;17.30;;;;;;;14.09;86.30;100452.09;88932;273;23332;-76
2023/09/13 03:28:36;;;;;;;23.20;17.50;;;;;;;14.09;86.49;100454.81;88566;282;136772;-75
2023/09/13 03:30:37;;;;;;;25.00;18.00;;;;;;;14.06;86.51;100456.67;88776;275;23742;-77
2023/09/13 03:32:39;;;;;;;20.10;17.80;;;;;;;14.05;86.47;100457.95;88768;281;138099;-75
2023/09/13 03:34:42;;;;;;;21.50;18.80;;;;;;;14.07;86.43;100459.53;88809;280;22532;-74
2023/09/13 03:36:45;;;;;;;22.30;17.70;;;;;;;14.07;86.45;100463.11;89103;273;137154;-74
2023/09/13 03:38:48;;;;;;;22.60;17.00;;;;;;;14.09;86.32;100462.48;89731;280;25124;-75
2023/09/13 03:40:51;;;;;;;26.50;19.50;;;;;;;14.09;86.41;100464.59;90109;273;138031;-74
2023/09/13 03:42:53;;;;;;;22.50;17.80;;;;;;;14.09;86.20;100464.14;90007;282;24032;-74
2023/09/13 03:44:55;;;;;;;22.50;17.50;;;;;;;14.12;86.09;100468.50;90155;274;136905;-73
2023/09/13 03:46:57;;;;;;;23.90;18.90;;;;;;;14.12;86.16;100464.74;90719;280;22617;-74
2023/09/13 03:48:59;;;;;;;29.60;18.80;;;;;;;14.20;85.90;100469.03;90251;279;137536;-74
2023/09/13 03:51:01;;;;;;;28.70;19.00;;;;;;;14.24;85.75;100473.39;89776;273;22536;-74
2023/09/13 03:53:03;;;;;;;23.90;17.90;;;;;;;14.26;85.57;100479.32;89166;281;136648;-74
2023/09/13 03:55:06;;;;;;;26.10;19.80;;;;;;;14.28;85.49;100477.29;89205;281;22615;-74
2023/09/13 03:57:08;;;;;;;25.20;19.30;;;;;;;14.33;85.24;100475.67;88779;282;136536;-73
2023/09/13 03:59:10;;;;;;;23.20;18.30;;;;;;;14.40;85.14;100478.84;89029;275;25058;-75
2023/09/13 04:01:12;;;;;;;31.10;18.60;;;;;;;14.52;84.92;100477.01;88872;273;138275;-74
2023/09/13 04:03:16;;;;;;;22.20;18.40;;;;;;;14.68;84.32;100478.70;88863;272;22596;-76
2023/09/13 04:05:18;;;;;;;21.30;17.50;;;;;;;14.86;83.57;100475.42;88636;275;137896;-77
2023/09/13 04:07:20;;;;;;;25.20;17.50;;;;;;;15.04;82.80;100469.89;88684;280;24057;-77
2023/09/13 04:09:22;;;;;;;19.60;17.50;;;;;;;15.28;81.72;100470.30;88428;275;136981;-78
2023/09/13 04:11:26;;;;;;;19.60;16.30;;;;;;;15.49;80.47;100471.92;88467;277;24022;-71
2023/09/13 04:13:28;;;;;;;20.60;18.40;;;;;;;15.64;79.41;100467.63;88435;279;136709;-72
2023/09/13 04:15:30;;;;;;;21.90;17.90;;;;;;;15.85;78.66;100466.45;88426;277;25102;-72
2023/09/13 04:17:33;;;;;;;27.30;19.10;;;;;;;16.09;77.74;100467.25;88545;281;136527;-71
2023/09/13 04:19:36;;;;;;;19.70;17.10;;;;;;;16.36;76.07;100468.71;88750;277;22517;-70
2023/09/13 04:21:38;;;;;;;27.10;18.50;;;;;;;16.61;74.58;100469.63;88883;275;136680;-71
2023/09/13 04:23:40;;;;;;;23.70;16.70;;;;;;;16.80;73.53;100471.29;88835;274;22554;-71
2023/09/13 04:25:43;;;;;;;23.70;16.60;;;;;;;16.97;72.40;100473.98;88827;273;137588;-67
2023/09/13 04:27:46;;;;;;;22.60;17.40;;;;;;;17.13;71.29;100473.85;88897;280;25175;-72
2023/09/13 04:29:48;;;;;;;22.10;16.40;;;;;;;17.27;70.37;100476.33;88549;274;136298;-74
2023/09/13 04:31:52;;;;;;;25.60;16.10;;;;;;;17.29;69.40;100465.59;88454;275;24310;-73
2023/09/13 04:33:55;;;;;;;18.80;16.10;;;;;;;17.50;68.87;100479.29;88490;273;136608;-74
2023/09/13 04:36:00;;;;;;;22.90;15.90;;;;;;;17.76;67.84;100483.46;88453;282;22548;-71
2023/09/13 04:38:02;;;;;;;19.70;15.30;;;;;;;18.02;66.38;100480.56;88457;273;136466;-66
2023/09/13 04:40:05;;;;;;;18.10;16.20;;;;;;;18.27;65.03;100481.35;88353;274;136890;-69
2023/09/13 04:42:07;;;;;;;19.40;16.00;;;;;;;18.43;63.77;100482.71;88781;273;22589;-65
2023/09/13 04:44:10;;;;;;;18.40;15.00;;;;;;;18.56;63.18;100482.39;88574;275;137995;-67
2023/09/13 04:46:12;;;;;;;19.50;15.70;;;;;;;18.69;62.56;100481.91;88481;282;24020;-71
2023/09/13 04:48:14;;;;;;;16.90;14.40;;;;;;;18.85;62.24;100483.46;88414;274;136959;-74
2023/09/13 04:50:16;;;;;;;19.40;14.30;;;;;;;19.07;61.85;100483.63;88520;282;25140;-68
2023/09/13 04:52:19;;;;;;;19.20;14.80;;;;;;;19.45;60.96;100477.61;88427;279;136820;-69
2023/09/13 04:54:22;;;;;;;20.40;15.10;;;;;;;19.87;59.34;100478.75;88577;280;24049;-67
2023/09/13 04:56:24;;;;;;;19.80;15.90;;;;;;;20.26;58.12;100481.11;88294;273;136501;-64
2023/09/13 04:58:28;;;;;;;21.20;14.50;;;;;;;20.53;56.66;100471.48;88480;275;24055;-65
2023/09/13 05:00:33;;;;;;;18.80;14.70;;;;;;;20.93;55.36;100482.92;88404;272;136597;-66
2023/09/13 05:02:35;;;;;;;19.30;13.80;;;;;;;21.25;54.34;100481.36;88483;274;25271;-68
2023/09/13 05:04:39;;;;;;;15.20;13.60;;;;;;;21.52;52.80;100479.20;88566;280;136855;-69
2023/09/13 05:06:41;;;;;;;14.90;13.40;;;;;;;21.69;52.10;100477.73;88634;281;25144;-66
2023/09/13 05:08:43;;;;;;;15.60;12.90;;;;;;;21.90;51.69;100478.48;88360;277;137497;-67
2023/09/13 05:10:45;;;;;;;18.80;13.30;;;;;;;22.19;50.59;100476.45;88499;277;22609;-67
2023/09/13 05:12:48;;;;;;;15.20;13.10;;;;;;;22.38;49.54;100476.05;88376;279;136643;-69
2023/09/13 05:14:50;;;;;;;15.70;12.40;;;;;;;22.51;49.30;100475.67;88730;279;23693;-72
2023/09/13 05:16:52;;;;;;;14.20;12.50;;;;;;;22.68;49.02;100472.80;88543;278;136592;-70
2023/09/13 05:18:54;;;;;;;18.90;13.10;;;;;;;22.95;48.28;100472.54;88575;272;25227;-69
2023/09/13 05:20:56;;;;;;;15.30;12.30;;;;;;;23.26;46.91;100471.05;88470;279;136788;-70
2023/09/13 05:22:58;;;;;;;18.00;13.20;;;;;;;23.46;46.40;100470.15;88676;279;22788;-69
2023/09/13 05:25:02;;;;;;;25.30;12.50;;;;;;;23.66;45.93;100467.86;88433;281;137247;-69
2023/09/13 05:27:04;;;;;;;15.60;12.70;;;;;;;23.92;45.30;100464.34;88494;282;25109;-67
2023/09/13 05:29:06;;;;;;;21.50;12.40;;;;;;;24.02;44.45;100467.43;88433;281;137420;-66
2023/09/13 05:31:08;;;;;;;19.10;13.30;;;;;;;23.94;44.37;100465.53;88478;279;22483;-68
2023/09/13 05:33:10;;;;;;;16.70;13.00;;;;;;;23.90;44.49;100461.30;88589;277;136500;-71
2023/09/13 05:35:12;;;;;;;21.30;12.60;;;;;;;23.98;44.57;100464.48;88570;280;23539;-72
2023/09/13 05:37:14;;;;;;;18.10;12.90;;;;;;;23.98;44.28;100462.90;88358;281;139470;-70
2023/09/13 05:39:16;;;;;;;19.80;13.70;;;;;;;23.94;44.54;100464.01;88718;278;24023;-70
2023/09/13 05:41:18;;;;;;;14.60;12.40;;;;;;;23.92;44.71;100467.33;88535;279;136448;-68
2023/09/13 05:43:20;;;;;;;20.10;13.00;;;;;;;24.00;44.62;100464.05;88631;282;26084;-72
2023/09/13 05:45:23;;;;;;;20.80;12.30;;;;;;;24.17;44.09;100465.38;88499;279;137691;-70
2023/09/13 05:47:25;;;;;;;16.80;12.00;;;;;;;24.23;43.57;100464.83;88744;279;25168;-69
2023/09/13 05:49:27;;;;;;;14.10;12.30;;;;;;;24.16;43.58;100462.61;88478;279;136977;-68
2023/09/13 05:51:30;;;;;;;13.00;10.10;;;;;;;23.98;43.82;100463.94;88526;277;25128;-72
2023/09/13 05:53:32;;;;;;;16.00;11.00;;;;;;;23.67;44.56;100462.91;88416;280;136541;-66
2023/09/13 05:55:34;;;;;;;13.90;10.90;;;;;;;23.42;45.06;100465.14;88583;282;24165;-68
2023/09/13 05:57:37;;;;;;;14.00;9.60;;;;;;;23.28;45.38;100464.58;88538;280;136767;-69
2023/09/13 05:59:39;;;;;;;13.50;10.90;;;;;;;23.24;45.53;100469.03;88645;282;22538;-70
2023/09/13 06:01:42;;;;;;;12.50;10.80;;;;;;;23.07;45.76;100465.83;88447;281;136869;-76
2023/09/13 06:03:44;;;;;;;11.70;9.70;;;;;;;22.93;45.81;100473.18;88503;282;22527;-74
2023/09/13 06:05:50;;;;;;;16.50;10.80;;;;;;;22.90;46.20;100474.63;88430;280;137401;-71
2023/09/13 06:07:52;;;;;;;13.10;10.70;;;;;;;22.93;46.05;100471.60;88597;273;25203;-68
2023/09/13 06:09:54;;;;;;;15.80;11.40;;;;;;;22.90;46.39;100472.52;88351;273;137779;-69
2023/09/13 06:11:57;;;;;;;15.10;11.90;;;;;;;22.95;46.40;100470.41;88552;272;22542;-69
2023/09/13 06:14:04;;;;;;;11.20;10.10;;;;;;;23.17;46.08;100471.46;88471;275;136134;-70
2023/09/13 06:16:09;;;;;;;15.20;9.00;;;;;;;23.57;45.96;100470.20;88942;280;136921;-69
2023/09/13 06:18:11;;;;;;;10.90;8.90;;;;;;;23.93;43.92;100467.60;88573;280;22592;-72
2023/09/13 06:20:13;;;;;;;14.00;9.30;;;;;;;23.98;43.53;100469.77;88476;280;136646;-73
2023/09/13 06:22:17;;;;;;;11.30;9.00;;;;;;;24.05;43.30;100467.48;88872;278;25137;-72
2023/09/13 06:24:19;;;;;;;9.90;8.80;;;;;;;24.22;43.20;100471.02;88807;273;136302;-70
2023/09/13 06:26:20;;;;;;;15.60;9.80;;;;;;;24.47;42.26;100465.13;90111;276;26007;-71
2023/09/13 06:28:22;;;;;;;14.80;8.80;;;;;;;24.52;41.41;100467.27;88395;272;136530;-75
2023/09/13 06:30:27;;;;;;;14.40;9.60;;;;;;;24.35;41.53;100472.20;88508;280;22541;-70
2023/09/13 06:32:29;;;;;;;11.60;9.00;;;;;;;24.25;41.75;100475.00;88447;277;136320;-69
2023/09/13 06:34:43;;;;;;;12.60;8.70;;;;;;;24.18;41.75;100471.80;88495;272;23194;-74
2023/09/13 06:36:45;;;;;;;12.20;8.50;;;;;;;24.15;42.05;100470.55;88403;273;137672;-67
2023/09/13 06:38:48;;;;;;;13.90;8.70;;;;;;;24.21;41.33;100461.73;88627;280;27170;-69
2023/09/13 06:40:51;;;;;;;15.40;8.40;;;;;;;24.11;41.74;100464.96;88506;277;138217;-69
2023/09/13 06:42:53;;;;;;;9.50;7.80;;;;;;;23.88;42.31;100466.79;88598;277;22517;-69
2023/09/13 06:45:02;;;;;;;11.10;8.60;;;;;;;23.63;42.47;100468.13;88352;280;136114;-71
2023/09/13 06:47:25;;;;;;;9.30;8.10;;;;;;;23.29;42.23;100472.84;90732;280;24014;-73
2023/09/13 06:49:27;;;;;;;9.40;6.60;;;;;;;23.01;42.97;100472.72;88561;282;137456;-66
2023/09/13 06:51:30;;;;;;;9.80;6.90;;;;;;;22.78;43.33;100474.31;88546;283;22537;-70
2023/09/13 06:53:34;;;;;;;10.40;8.30;;;;;;;22.55;44.42;100471.19;88327;282;136318;-71
2023/09/13 06:55:38;;;;;;;9.50;8.60;;;;;;;22.33;45.27;100469.39;88646;280;23247;-68
2023/09/13 06:57:42;;;;;;;9.60;8.60;;;;;;;22.09;46.14;100472.20;88563;280;136178;-71
2023/09/13 06:59:45;;;;;;;9.70;7.20;;;;;;;21.91;46.56;100473.61;88593;280;22547;-69
2023/09/13 07:01:58;;;;;;;10.70;7.80;;;;;;;21.75;46.98;100468.77;88399;280;136191;-71
2023/09/13 07:05:53;;;;;;;12.30;7.30;;;;;;;21.56;47.08;100476.91;86623;306;604819;-71
2023/09/13 07:07:55;;;;;;;8.70;6.90;;;;;;;21.54;46.71;100480.20;87833;291;22558;-71
2023/09/13 07:09:57;;;;;;;10.30;8.20;;;;;;;21.51;47.47;100480.50;87735;294;135431;-69
2023/09/13 07:11:59;;;;;;;15.10;7.70;;;;;;;21.49;47.21;100479.61;87730;287;22555;-71
2023/09/13 07:14:01;;;;;;;10.20;6.50;;;;;;;21.48;47.76;100479.39;87528;288;136565;-72
2023/09/13 07:16:03;;;;;;;10.20;7.00;;;;;;;21.51;47.32;100478.11;87658;287;135795;-70
2023/09/13 07:18:05;;;;;;;10.10;6.80;;;;;;;21.54;46.25;100482.70;88317;280;24055;-70
2023/09/13 07:20:07;;;;;;;12.60;5.40;;;;;;;21.52;46.12;100477.63;87757;286;676092;-70
2023/09/13 07:22:09;;;;;;;7.30;5.70;;;;;;;21.55;45.63;100481.03;88507;278;23521;-69
2023/09/13 07:24:12;;;;;;;9.40;6.10;;;;;;;21.61;45.75;100478.20;88065;279;135884;-72
2023/09/13 07:26:14;;;;;;;8.40;7.60;;;;;;;21.64;45.80;100483.22;88578;287;22572;-72
2023/09/13 07:28:16;;;;;;;12.10;7.00;;;;;;;21.64;45.64;100476.60;88120;278;136171;-72
2023/09/13 07:30:18;;;;;;;11.30;9.50;;;;;;;21.66;45.89;100478.95;88167;286;25275;-71
2023/09/13 07:32:21;;;;;;;11.30;8.00;;;;;;;21.71;45.80;100479.21;88660;275;137345;-69
2023/09/13 07:34:26;;;;;;;11.60;8.00;;;;;;;21.79;45.89;100477.25;88352;275;22534;-64
2023/09/13 07:36:33;;;;;;;8.90;6.20;;;;;;;21.88;45.91;100473.43;88319;279;136012;-75
2023/09/13 07:38:37;;;;;;;9.90;6.80;;;;;;;21.96;46.54;100470.01;88236;284;25169;-70
2023/09/13 07:40:40;;;;;;;11.90;7.00;;;;;;;22.03;46.57;100472.28;87934;278;135943;-69
2023/09/13 07:42:43;;;;;;;15.30;10.40;;;;;;;22.09;46.26;100476.32;88199;281;22552;-69
2023/09/13 07:44:45;;;;;;;19.50;10.10;;;;;;;22.13;45.75;100474.84;88172;281;138119;-71
2023/09/13 07:46:48;;;;;;;13.40;7.60;;;;;;;22.18;45.97;100471.13;88064;285;25184;-71
2023/09/13 07:48:50;;;;;;;12.20;8.40;;;;;;;22.21;46.19;100463.84;88027;280;136093;-67
2023/09/13 07:50:52;;;;;;;11.00;7.90;;;;;;;22.29;46.46;100473.51;88230;281;23003;-70
2023/09/13 07:52:54;;;;;;;15.40;11.40;;;;;;;22.32;46.33;100476.29;88367;276;137424;-70
2023/09/13 07:55:06;;;;;;;17.10;11.50;;;;;;;22.41;45.72;100476.55;88276;275;22527;-69
2023/09/13 07:57:08;;;;;;;13.00;9.50;;;;;;;22.44;46.01;100478.58;88273;283;136057;-73
2023/09/13 07:59:14;;;;;;;23.40;13.90;;;;;;;22.43;45.46;100479.66;88291;283;24232;-69
2023/09/13 08:01:16;;;;;;;19.10;13.60;;;;;;;22.41;45.34;100479.48;88171;279;136682;-68
2023/09/13 08:03:18;;;;;;;14.70;10.50;;;;;;;22.37;45.36;100475.71;88257;276;22542;-72
2023/09/13 08:05:20;;;;;;;10.00;8.50;;;;;;;22.33;45.95;100465.91;88374;279;136641;-77
2023/09/13 08:07:21;;;;;;;17.30;8.70;;;;;;;22.42;45.84;100476.01;88149;275;25300;-70
2023/09/13 08:09:23;;;;;;;10.50;6.80;;;;;;;22.49;45.43;100478.81;88160;275;135942;-70
2023/09/13 08:11:25;;;;;;;12.30;6.70;;;;;;;22.50;46.02;100475.79;88413;276;25328;-70
2023/09/13 08:13:27;;;;;;;9.20;6.80;;;;;;;22.54;45.97;100473.95;88168;275;136118;-71
2023/09/13 08:15:29;;;;;;;14.50;6.50;;;;;;;22.59;45.95;100475.39;88742;283;25099;-69
2023/09/13 08:17:49;;;;;;;7.40;6.10;;;;;;;22.66;45.14;100479.72;88170;284;136350;-66
2023/09/13 08:19:52;;;;;;;11.70;7.00;;;;;;;22.71;44.78;100478.96;88274;278;25219;-71
2023/09/13 08:21:53;;;;;;;6.10;5.20;;;;;;;22.78;44.71;100472.48;88548;283;137026;-72
2023/09/13 08:23:55;;;;;;;8.60;5.10;;;;;;;22.86;44.77;100470.70;88732;276;22537;-76
2023/09/13 08:25:57;;;;;;;10.00;6.30;;;;;;;22.95;44.42;100472.73;88752;284;135724;-69
2023/09/13 08:28:17;;;;;;;10.60;6.20;;;;;;;22.99;44.01;100463.20;88512;284;137290;-77
2023/09/13 08:30:19;;;;;;;7.10;5.50;;;;;;;23.16;43.73;100473.09;88709;282;22549;-69
2023/09/13 08:32:20;;;;;;;8.50;6.60;;;;;;;23.21;43.48;100471.15;88198;278;137659;-68
2023/09/13 08:34:24;;;;;;;7.30;5.80;;;;;;;23.23;43.57;100471.37;88391;282;22558;-69
2023/09/13 08:36:25;;;;;;;9.90;5.60;;;;;;;23.26;43.33;100472.68;88241;276;135951;-69
2023/09/13 08:38:28;;;;;;;5.90;5.40;;;;;;;23.29;43.46;100470.23;88615;283;22793;-68
2023/09/13 08:40:30;;;;;;;9.50;6.00;;;;;;;23.34;43.39;100469.54;88254;281;135305;-68
2023/09/13 08:42:33;;;;;;;10.50;5.00;;;;;;;23.42;43.21;100470.46;88607;284;25083;-71
2023/09/13 08:44:37;;;;;;;10.00;5.10;;;;;;;23.52;43.03;100469.11;88541;276;136908;-66
2023/09/13 08:46:39;;;;;;;15.20;5.60;;;;;;;23.60;42.61;100469.70;88461;280;22534;-69
2023/09/13 08:48:41;;;;;;;7.40;6.20;;;;;;;23.63;41.99;100467.09;88243;277;136134;-74
2023/09/13 08:50:47;;;;;;;9.70;6.40;;;;;;;23.65;41.84;100466.95;88424;280;22533;-68
2023/09/13 08:52:50;;;;;;;7.40;5.00;;;;;;;23.58;41.62;100453.61;88559;283;136757;-67
2023/09/13 08:54:56;;;;;;;9.90;5.30;;;;;;;23.54;42.23;100437.34;88610;284;22517;-69
2023/09/13 08:57:02;;;;;;;11.50;5.30;;;;;;;23.73;42.08;100455.39;88260;277;135828;-69
2023/09/13 08:59:04;;;;;;;11.30;5.90;;;;;;;23.78;41.48;100457.36;88309;283;25083;-68
2023/09/13 09:01:09;;;;;;;8.30;5.90;;;;;;;23.82;41.52;100457.11;88643;276;137072;-71
2023/09/13 09:03:15;;;;;;;6.40;5.70;;;;;;;23.86;41.64;100456.13;89306;280;22479;-74
2023/09/13 09:05:17;;;;;;;6.30;5.40;;;;;;;23.93;41.17;100457.32;88644;278;136003;-70
2023/09/13 09:07:20;;;;;;;7.10;5.90;;;;;;;23.98;41.12;100452.63;88809;280;25087;-69
2023/09/13 09:09:28;;;;;;;8.40;5.70;;;;;;;24.01;40.45;100450.06;88861;280;135718;-72
2023/09/13 09:11:32;;;;;;;10.00;5.10;;;;;;;24.02;40.44;100449.29;88320;284;24129;-71
2023/09/13 09:13:37;;;;;;;8.50;5.40;;;;;;;24.05;40.87;100445.74;89528;279;135857;-70
2023/09/13 09:15:40;;;;;;;6.30;4.80;;;;;;;24.12;41.01;100444.31;89083;284;22539;-69
2023/09/13 09:17:46;;;;;;;10.90;5.10;;;;;;;24.18;40.51;100441.52;88581;283;136647;-71
2023/09/13 09:19:49;;;;;;;7.20;4.20;;;;;;;24.26;39.54;100436.44;88689;276;22550;-68
2023/09/13 09:21:51;;;;;;;8.70;5.10;;;;;;;24.31;38.62;100438.48;88512;283;135765;-69
2023/09/13 09:23:54;;;;;;;9.40;4.60;;;;;;;24.35;38.76;100433.69;88382;276;25251;-69
2023/09/13 09:25:55;;;;;;;6.90;4.30;;;;;;;24.40;38.74;100433.28;88359;280;135725;-74
2023/09/13 09:27:57;;;;;;;5.50;4.10;;;;;;;24.48;38.58;100430.41;88611;283;25220;-67